sensor_id;sensor_type;location;lat;lon;timestamp;temperature;humidity
68719;DHT22;55696;52.138;5.444;2023-03-29T00:02:23;9.80;65.80
68719;DHT22;55696;52.138;5.444;2023-03-29T00:04:56;9.80;66.60
68719;DHT22;55696;52.138;5.444;2023-03-29T00:07:28;9.90;66.70
68719;DHT22;55696;52.138;5.444;2023-03-29T00:09:55;10.00;66.30
68719;DHT22;55696;52.138;5.444;2023-03-29T00:12:23;9.90;65.70
68719;DHT22;55696;52.138;5.444;2023-03-29T00:14:51;10.00;65.80
68719;DHT22;55696;52.138;5.444;2023-03-29T00:17:18;10.00;65.90
68719;DHT22;55696;52.138;5.444;2023-03-29T00:19:46;10.00;65.70
68719;DHT22;55696;52.138;5.444;2023-03-29T00:22:13;10.00;67.00
68719;DHT22;55696;52.138;5.444;2023-03-29T00:24:40;10.00;66.10
68719;DHT22;55696;52.138;5.444;2023-03-29T00:27:06;10.00;65.90
68719;DHT22;55696;52.138;5.444;2023-03-29T00:29:33;10.00;65.80
68719;DHT22;55696;52.138;5.444;2023-03-29T00:32:00;10.60;66.30
68719;DHT22;55696;52.138;5.444;2023-03-29T00:34:27;8.00;64.90
68719;DHT22;55696;52.138;5.444;2023-03-29T00:36:57;9.90;65.90
68719;DHT22;55696;52.138;5.444;2023-03-29T00:39:25;9.90;66.30
68719;DHT22;55696;52.138;5.444;2023-03-29T00:41:54;9.80;66.70
68719;DHT22;55696;52.138;5.444;2023-03-29T00:44:59;9.80;66.00
68719;DHT22;55696;52.138;5.444;2023-03-29T00:47:57;9.90;68.00
68719;DHT22;55696;52.138;5.444;2023-03-29T00:50:29;9.90;67.70
68719;DHT22;55696;52.138;5.444;2023-03-29T00:53:06;10.00;65.50
68719;DHT22;55696;52.138;5.444;2023-03-29T00:55:37;9.90;67.80
68719;DHT22;55696;52.138;5.444;2023-03-29T00:58:06;9.90;67.20
68719;DHT22;55696;52.138;5.444;2023-03-29T01:00:37;9.90;67.10
68719;DHT22;55696;52.138;5.444;2023-03-29T01:03:09;10.30;67.50
68719;DHT22;55696;52.138;5.444;2023-03-29T01:05:43;10.00;67.60
68719;DHT22;55696;52.138;5.444;2023-03-29T01:08:27;10.00;67.30
68719;DHT22;55696;52.138;5.444;2023-03-29T01:11:13;9.90;67.80
68719;DHT22;55696;52.138;5.444;2023-03-29T01:16:10;10.00;67.00
68719;DHT22;55696;52.138;5.444;2023-03-29T01:18:38;10.10;66.80
68719;DHT22;55696;52.138;5.444;2023-03-29T01:21:34;10.20;65.40
68719;DHT22;55696;52.138;5.444;2023-03-29T01:30:02;10.30;67.20
68719;DHT22;55696;52.138;5.444;2023-03-29T01:32:33;10.30;66.70
68719;DHT22;55696;52.138;5.444;2023-03-29T01:38:06;10.30;66.50
68719;DHT22;55696;52.138;5.444;2023-03-29T01:40:35;10.30;66.40
68719;DHT22;55696;52.138;5.444;2023-03-29T01:43:17;10.40;64.80
68719;DHT22;55696;52.138;5.444;2023-03-29T01:46:26;10.50;65.80
68719;DHT22;55696;52.138;5.444;2023-03-29T01:48:50;10.50;66.80
68719;DHT22;55696;52.138;5.444;2023-03-29T01:54:02;10.60;66.20
68719;DHT22;55696;52.138;5.444;2023-03-29T01:56:34;10.60;66.10
68719;DHT22;55696;52.138;5.444;2023-03-29T01:59:06;10.70;65.40
68719;DHT22;55696;52.138;5.444;2023-03-29T02:01:37;10.60;65.20
68719;DHT22;55696;52.138;5.444;2023-03-29T02:04:10;10.80;64.90
68719;DHT22;55696;52.138;5.444;2023-03-29T02:06:39;10.80;65.30
68719;DHT22;55696;52.138;5.444;2023-03-29T02:09:07;10.80;64.40
68719;DHT22;55696;52.138;5.444;2023-03-29T02:11:35;10.90;63.60
68719;DHT22;55696;52.138;5.444;2023-03-29T02:14:02;10.80;63.80
68719;DHT22;55696;52.138;5.444;2023-03-29T02:16:34;10.80;63.30
68719;DHT22;55696;52.138;5.444;2023-03-29T02:19:02;10.80;65.00
68719;DHT22;55696;52.138;5.444;2023-03-29T02:21:43;11.20;64.10
68719;DHT22;55696;52.138;5.444;2023-03-29T02:24:15;10.80;65.70
68719;DHT22;55696;52.138;5.444;2023-03-29T02:26:43;10.80;65.10
68719;DHT22;55696;52.138;5.444;2023-03-29T02:29:11;10.70;63.80
68719;DHT22;55696;52.138;5.444;2023-03-29T02:32:04;11.30;64.50
68719;DHT22;55696;52.138;5.444;2023-03-29T02:34:49;10.70;65.50
68719;DHT22;55696;52.138;5.444;2023-03-29T02:37:19;10.80;66.00
68719;DHT22;55696;52.138;5.444;2023-03-29T02:39:48;10.70;64.90
68719;DHT22;55696;52.138;5.444;2023-03-29T02:42:17;10.80;64.50
68719;DHT22;55696;52.138;5.444;2023-03-29T02:44:46;10.80;65.30
68719;DHT22;55696;52.138;5.444;2023-03-29T02:47:20;10.80;64.70
68719;DHT22;55696;52.138;5.444;2023-03-29T02:49:49;10.80;65.80
68719;DHT22;55696;52.138;5.444;2023-03-29T02:52:21;10.80;64.10
68719;DHT22;55696;52.138;5.444;2023-03-29T02:54:51;10.80;65.50
68719;DHT22;55696;52.138;5.444;2023-03-29T02:57:21;10.90;65.60
68719;DHT22;55696;52.138;5.444;2023-03-29T02:59:54;10.80;65.10
68719;DHT22;55696;52.138;5.444;2023-03-29T03:02:22;10.70;65.50
68719;DHT22;55696;52.138;5.444;2023-03-29T03:04:54;10.90;64.10
68719;DHT22;55696;52.138;5.444;2023-03-29T03:07:21;11.20;64.50
68719;DHT22;55696;52.138;5.444;2023-03-29T03:09:48;10.80;64.40
68719;DHT22;55696;52.138;5.444;2023-03-29T03:12:14;10.80;64.50
68719;DHT22;55696;52.138;5.444;2023-03-29T03:14:41;10.80;64.50
68719;DHT22;55696;52.138;5.444;2023-03-29T03:17:09;10.80;64.50
68719;DHT22;55696;52.138;5.444;2023-03-29T03:19:36;10.80;64.50
68719;DHT22;55696;52.138;5.444;2023-03-29T03:22:03;10.80;64.60
68719;DHT22;55696;52.138;5.444;2023-03-29T03:24:31;10.80;64.70
68719;DHT22;55696;52.138;5.444;2023-03-29T03:26:58;10.70;64.80
68719;DHT22;55696;52.138;5.444;2023-03-29T03:29:25;10.80;65.90
68719;DHT22;55696;52.138;5.444;2023-03-29T03:32:10;10.70;65.20
68719;DHT22;55696;52.138;5.444;2023-03-29T03:34:56;10.90;65.00
68719;DHT22;55696;52.138;5.444;2023-03-29T03:37:26;10.80;65.00
68719;DHT22;55696;52.138;5.444;2023-03-29T03:39:53;10.80;65.80
68719;DHT22;55696;52.138;5.444;2023-03-29T03:42:21;10.70;65.30
68719;DHT22;55696;52.138;5.444;2023-03-29T03:44:48;10.80;65.00
68719;DHT22;55696;52.138;5.444;2023-03-29T03:47:34;10.80;65.20
68719;DHT22;55696;52.138;5.444;2023-03-29T03:50:16;10.80;66.90
68719;DHT22;55696;52.138;5.444;2023-03-29T03:52:44;10.80;65.50
68719;DHT22;55696;52.138;5.444;2023-03-29T03:55:11;10.80;65.10
68719;DHT22;55696;52.138;5.444;2023-03-29T03:57:45;10.80;65.10
68719;DHT22;55696;52.138;5.444;2023-03-29T04:00:16;10.90;65.00
68719;DHT22;55696;52.138;5.444;2023-03-29T04:02:56;10.90;64.70
68719;DHT22;55696;52.138;5.444;2023-03-29T04:05:23;10.80;65.30
68719;DHT22;55696;52.138;5.444;2023-03-29T04:07:50;10.80;65.20
68719;DHT22;55696;52.138;5.444;2023-03-29T04:10:28;10.80;65.20
68719;DHT22;55696;52.138;5.444;2023-03-29T04:13:05;10.80;65.20
68719;DHT22;55696;52.138;5.444;2023-03-29T04:15:35;10.80;65.40
68719;DHT22;55696;52.138;5.444;2023-03-29T04:18:08;10.80;64.90
68719;DHT22;55696;52.138;5.444;2023-03-29T04:20:42;10.80;65.60
68719;DHT22;55696;52.138;5.444;2023-03-29T04:23:10;11.20;66.70
68719;DHT22;55696;52.138;5.444;2023-03-29T04:25:38;10.80;66.00
68719;DHT22;55696;52.138;5.444;2023-03-29T04:28:41;10.80;66.00
68719;DHT22;55696;52.138;5.444;2023-03-29T04:31:13;10.90;65.90
68719;DHT22;55696;52.138;5.444;2023-03-29T04:33:49;10.80;66.10
68719;DHT22;55696;52.138;5.444;2023-03-29T04:36:17;10.80;65.60
68719;DHT22;55696;52.138;5.444;2023-03-29T04:38:44;10.70;65.70
68719;DHT22;55696;52.138;5.444;2023-03-29T04:41:14;10.70;65.80
68719;DHT22;55696;52.138;5.444;2023-03-29T04:43:41;10.80;65.70
68719;DHT22;55696;52.138;5.444;2023-03-29T04:46:23;10.80;65.80
68719;DHT22;55696;52.138;5.444;2023-03-29T04:49:14;10.80;65.40
68719;DHT22;55696;52.138;5.444;2023-03-29T04:51:46;10.80;65.70
68719;DHT22;55696;52.138;5.444;2023-03-29T04:54:15;10.80;65.70
68719;DHT22;55696;52.138;5.444;2023-03-29T04:56:55;10.80;65.40
68719;DHT22;55696;52.138;5.444;2023-03-29T04:59:37;10.80;65.70
68719;DHT22;55696;52.138;5.444;2023-03-29T05:02:15;10.90;65.70
68719;DHT22;55696;52.138;5.444;2023-03-29T05:04:46;10.90;65.70
68719;DHT22;55696;52.138;5.444;2023-03-29T05:07:15;10.80;65.60
68719;DHT22;55696;52.138;5.444;2023-03-29T05:09:43;10.90;66.10
68719;DHT22;55696;52.138;5.444;2023-03-29T05:12:11;10.90;65.40
68719;DHT22;55696;52.138;5.444;2023-03-29T05:14:52;10.90;65.40
68719;DHT22;55696;52.138;5.444;2023-03-29T05:17:21;10.90;65.70
68719;DHT22;55696;52.138;5.444;2023-03-29T05:19:49;10.90;65.70
68719;DHT22;55696;52.138;5.444;2023-03-29T05:22:16;10.90;65.50
68719;DHT22;55696;52.138;5.444;2023-03-29T05:24:44;11.00;65.30
68719;DHT22;55696;52.138;5.444;2023-03-29T05:27:16;11.00;65.20
68719;DHT22;55696;52.138;5.444;2023-03-29T05:29:50;10.90;65.10
68719;DHT22;55696;52.138;5.444;2023-03-29T05:32:26;10.90;65.10
68719;DHT22;55696;52.138;5.444;2023-03-29T05:34:53;11.00;65.80
68719;DHT22;55696;52.138;5.444;2023-03-29T05:37:20;11.10;65.40
68719;DHT22;55696;52.138;5.444;2023-03-29T05:39:52;11.00;65.50
68719;DHT22;55696;52.138;5.444;2023-03-29T05:42:32;11.10;65.10
68719;DHT22;55696;52.138;5.444;2023-03-29T05:45:05;11.10;65.10
68719;DHT22;55696;52.138;5.444;2023-03-29T05:47:32;11.20;65.40
68719;DHT22;55696;52.138;5.444;2023-03-29T05:49:59;11.20;65.00
68719;DHT22;55696;52.138;5.444;2023-03-29T05:52:25;11.20;64.80
68719;DHT22;55696;52.138;5.444;2023-03-29T05:54:52;11.20;64.70
68719;DHT22;55696;52.138;5.444;2023-03-29T05:57:20;11.20;64.80
68719;DHT22;55696;52.138;5.444;2023-03-29T05:59:47;11.20;65.70
68719;DHT22;55696;52.138;5.444;2023-03-29T06:02:14;11.30;64.80
68719;DHT22;55696;52.138;5.444;2023-03-29T06:04:47;12.10;65.20
68719;DHT22;55696;52.138;5.444;2023-03-29T06:07:35;11.30;64.80
68719;DHT22;55696;52.138;5.444;2023-03-29T06:10:12;11.30;64.60
68719;DHT22;55696;52.138;5.444;2023-03-29T06:12:43;9.80;64.00
68719;DHT22;55696;52.138;5.444;2023-03-29T06:15:10;11.30;64.90
68719;DHT22;55696;52.138;5.444;2023-03-29T06:17:59;11.30;64.70
68719;DHT22;55696;52.138;5.444;2023-03-29T06:20:26;11.40;64.60
68719;DHT22;55696;52.138;5.444;2023-03-29T06:23:01;11.40;64.60
68719;DHT22;55696;52.138;5.444;2023-03-29T06:25:28;11.40;65.20
68719;DHT22;55696;52.138;5.444;2023-03-29T06:27:56;11.50;64.20
68719;DHT22;55696;52.138;5.444;2023-03-29T06:30:24;12.60;64.80
68719;DHT22;55696;52.138;5.444;2023-03-29T06:32:54;11.30;64.30
68719;DHT22;55696;52.138;5.444;2023-03-29T06:35:35;11.60;64.00
68719;DHT22;55696;52.138;5.444;2023-03-29T06:38:05;11.60;64.90
68719;DHT22;55696;52.138;5.444;2023-03-29T06:41:06;11.70;63.90
68719;DHT22;55696;52.138;5.444;2023-03-29T06:44:01;11.70;66.10
68719;DHT22;55696;52.138;5.444;2023-03-29T06:46:33;11.80;63.80
68719;DHT22;55696;52.138;5.444;2023-03-29T06:49:04;11.80;63.60
68719;DHT22;55696;52.138;5.444;2023-03-29T06:51:40;12.00;63.60
68719;DHT22;55696;52.138;5.444;2023-03-29T06:54:07;12.10;63.30
68719;DHT22;55696;52.138;5.444;2023-03-29T06:56:37;12.10;63.10
68719;DHT22;55696;52.138;5.444;2023-03-29T06:59:10;12.20;63.30
68719;DHT22;55696;52.138;5.444;2023-03-29T07:01:46;12.30;64.10
68719;DHT22;55696;52.138;5.444;2023-03-29T07:04:22;12.30;63.20
68719;DHT22;55696;52.138;5.444;2023-03-29T07:07:06;12.40;63.20
68719;DHT22;55696;52.138;5.444;2023-03-29T07:09:37;12.50;63.00
68719;DHT22;55696;52.138;5.444;2023-03-29T07:12:24;12.50;64.10
68719;DHT22;55696;52.138;5.444;2023-03-29T07:14:56;12.50;63.40
68719;DHT22;55696;52.138;5.444;2023-03-29T07:17:30;12.40;63.40
68719;DHT22;55696;52.138;5.444;2023-03-29T07:19:58;12.70;63.40
68719;DHT22;55696;52.138;5.444;2023-03-29T07:22:41;12.70;63.20
68719;DHT22;55696;52.138;5.444;2023-03-29T07:25:10;12.70;63.30
68719;DHT22;55696;52.138;5.444;2023-03-29T07:27:40;12.80;63.90
68719;DHT22;55696;52.138;5.444;2023-03-29T07:30:09;12.90;64.10
68719;DHT22;55696;52.138;5.444;2023-03-29T07:32:38;13.10;63.80
68719;DHT22;55696;52.138;5.444;2023-03-29T07:35:26;13.00;63.40
68719;DHT22;55696;52.138;5.444;2023-03-29T07:37:54;13.10;62.70
68719;DHT22;55696;52.138;5.444;2023-03-29T07:40:22;13.10;62.50
68719;DHT22;55696;52.138;5.444;2023-03-29T07:42:56;13.00;62.90
68719;DHT22;55696;52.138;5.444;2023-03-29T07:45:25;13.10;62.40
68719;DHT22;55696;52.138;5.444;2023-03-29T07:47:59;13.20;63.40
68719;DHT22;55696;52.138;5.444;2023-03-29T07:50:33;13.20;62.50
68719;DHT22;55696;52.138;5.444;2023-03-29T07:53:02;13.30;62.20
68719;DHT22;55696;52.138;5.444;2023-03-29T07:55:31;13.40;62.00
68719;DHT22;55696;52.138;5.444;2023-03-29T07:58:06;14.40;62.30
68719;DHT22;55696;52.138;5.444;2023-03-29T08:00:34;13.60;61.60
68719;DHT22;55696;52.138;5.444;2023-03-29T08:03:21;13.60;61.30
68719;DHT22;55696;52.138;5.444;2023-03-29T08:05:48;13.80;61.20
68719;DHT22;55696;52.138;5.444;2023-03-29T08:08:15;13.70;61.10
68719;DHT22;55696;52.138;5.444;2023-03-29T08:10:49;13.80;60.90
68719;DHT22;55696;52.138;5.444;2023-03-29T08:13:36;13.80;60.60
68719;DHT22;55696;52.138;5.444;2023-03-29T08:16:34;13.90;60.70
68719;DHT22;55696;52.138;5.444;2023-03-29T08:19:09;14.00;60.80
68719;DHT22;55696;52.138;5.444;2023-03-29T08:21:47;13.90;60.70
68719;DHT22;55696;52.138;5.444;2023-03-29T08:24:15;14.10;60.80
68719;DHT22;55696;52.138;5.444;2023-03-29T08:26:49;13.90;60.60
68719;DHT22;55696;52.138;5.444;2023-03-29T08:29:18;13.80;60.60
68719;DHT22;55696;52.138;5.444;2023-03-29T08:31:45;14.10;60.70
68719;DHT22;55696;52.138;5.444;2023-03-29T08:34:12;14.10;60.60
68719;DHT22;55696;52.138;5.444;2023-03-29T08:36:48;14.10;61.00
68719;DHT22;55696;52.138;5.444;2023-03-29T08:39:24;14.20;60.60
68719;DHT22;55696;52.138;5.444;2023-03-29T08:45:35;14.40;62.60
68719;DHT22;55696;52.138;5.444;2023-03-29T08:51:00;14.60;62.00
68719;DHT22;55696;52.138;5.444;2023-03-29T08:53:34;14.60;61.80
68719;DHT22;55696;52.138;5.444;2023-03-29T08:56:25;14.60;61.60
68719;DHT22;55696;52.138;5.444;2023-03-29T08:59:18;14.60;61.30
68719;DHT22;55696;52.138;5.444;2023-03-29T09:01:48;14.70;61.70
68719;DHT22;55696;52.138;5.444;2023-03-29T09:04:22;14.70;61.00
68719;DHT22;55696;52.138;5.444;2023-03-29T09:06:57;14.60;61.10
68719;DHT22;55696;52.138;5.444;2023-03-29T09:09:32;14.60;60.40
68719;DHT22;55696;52.138;5.444;2023-03-29T09:12:18;14.80;61.40
68719;DHT22;55696;52.138;5.444;2023-03-29T09:29:53;14.90;61.80
68719;DHT22;55696;52.138;5.444;2023-03-29T09:32:59;15.00;62.30
68719;DHT22;55696;52.138;5.444;2023-03-29T09:36:10;15.10;61.90
68719;DHT22;55696;52.138;5.444;2023-03-29T09:38:41;15.20;62.40
68719;DHT22;55696;52.138;5.444;2023-03-29T09:41:32;15.40;61.20
68719;DHT22;55696;52.138;5.444;2023-03-29T09:44:06;15.60;61.40
68719;DHT22;55696;52.138;5.444;2023-03-29T09:46:52;15.60;60.70
68719;DHT22;55696;52.138;5.444;2023-03-29T09:49:31;15.70;60.80
68719;DHT22;55696;52.138;5.444;2023-03-29T09:52:03;15.70;60.10
68719;DHT22;55696;52.138;5.444;2023-03-29T09:54:31;15.80;60.20
68719;DHT22;55696;52.138;5.444;2023-03-29T09:57:01;15.90;58.90
68719;DHT22;55696;52.138;5.444;2023-03-29T09:59:28;15.70;58.30
68719;DHT22;55696;52.138;5.444;2023-03-29T10:02:07;16.00;58.50
68719;DHT22;55696;52.138;5.444;2023-03-29T10:04:35;16.10;60.60
68719;DHT22;55696;52.138;5.444;2023-03-29T10:07:05;16.20;58.50
68719;DHT22;55696;52.138;5.444;2023-03-29T10:09:32;16.10;59.60
68719;DHT22;55696;52.138;5.444;2023-03-29T10:12:15;16.20;58.30
68719;DHT22;55696;52.138;5.444;2023-03-29T10:14:46;16.00;58.60
68719;DHT22;55696;52.138;5.444;2023-03-29T10:17:24;16.10;60.00
68719;DHT22;55696;52.138;5.444;2023-03-29T10:19:56;16.30;59.30
68719;DHT22;55696;52.138;5.444;2023-03-29T10:22:26;16.50;59.40
68719;DHT22;55696;52.138;5.444;2023-03-29T10:24:55;16.60;58.40
68719;DHT22;55696;52.138;5.444;2023-03-29T10:27:27;16.80;58.20
68719;DHT22;55696;52.138;5.444;2023-03-29T10:29:57;17.00;58.20
68719;DHT22;55696;52.138;5.444;2023-03-29T10:32:33;17.00;57.30
68719;DHT22;55696;52.138;5.444;2023-03-29T10:35:09;17.00;57.70
68719;DHT22;55696;52.138;5.444;2023-03-29T10:37:42;16.90;58.10
68719;DHT22;55696;52.138;5.444;2023-03-29T10:40:19;16.90;58.10
68719;DHT22;55696;52.138;5.444;2023-03-29T10:42:48;17.00;58.40
68719;DHT22;55696;52.138;5.444;2023-03-29T10:45:24;16.80;57.10
68719;DHT22;55696;52.138;5.444;2023-03-29T10:47:54;16.80;57.90
68719;DHT22;55696;52.138;5.444;2023-03-29T10:50:22;16.70;58.40
68719;DHT22;55696;52.138;5.444;2023-03-29T10:52:49;16.70;57.40
68719;DHT22;55696;52.138;5.444;2023-03-29T10:55:16;16.90;57.50
68719;DHT22;55696;52.138;5.444;2023-03-29T10:58:21;16.90;57.30
68719;DHT22;55696;52.138;5.444;2023-03-29T11:00:57;17.10;58.70
68719;DHT22;55696;52.138;5.444;2023-03-29T11:03:47;17.30;58.70
68719;DHT22;55696;52.138;5.444;2023-03-29T11:12:13;17.60;58.00
68719;DHT22;55696;52.138;5.444;2023-03-29T11:17:48;17.60;56.40
68719;DHT22;55696;52.138;5.444;2023-03-29T11:20:34;17.40;58.70
68719;DHT22;55696;52.138;5.444;2023-03-29T11:25:52;16.80;60.60
68719;DHT22;55696;52.138;5.444;2023-03-29T11:28:33;16.60;59.50
68719;DHT22;55696;52.138;5.444;2023-03-29T11:31:14;16.50;61.60
68719;DHT22;55696;52.138;5.444;2023-03-29T11:36:52;16.60;62.00
68719;DHT22;55696;52.138;5.444;2023-03-29T11:39:29;16.50;62.00
68719;DHT22;55696;52.138;5.444;2023-03-29T11:42:08;16.60;61.60
68719;DHT22;55696;52.138;5.444;2023-03-29T11:44:39;16.70;62.10
68719;DHT22;55696;52.138;5.444;2023-03-29T11:47:18;16.80;61.40
68719;DHT22;55696;52.138;5.444;2023-03-29T11:49:53;16.90;61.90
68719;DHT22;55696;52.138;5.444;2023-03-29T11:52:35;17.20;59.20
68719;DHT22;55696;52.138;5.444;2023-03-29T11:55:11;17.30;60.30
68719;DHT22;55696;52.138;5.444;2023-03-29T11:57:48;17.30;60.50
68719;DHT22;55696;52.138;5.444;2023-03-29T12:00:34;17.40;59.40
68719;DHT22;55696;52.138;5.444;2023-03-29T12:05:47;17.30;59.40
68719;DHT22;55696;52.138;5.444;2023-03-29T12:08:34;17.50;60.90
68719;DHT22;55696;52.138;5.444;2023-03-29T12:13:50;17.40;59.20
68719;DHT22;55696;52.138;5.444;2023-03-29T12:18:58;17.20;60.30
68719;DHT22;55696;52.138;5.444;2023-03-29T12:21:27;17.10;60.20
68719;DHT22;55696;52.138;5.444;2023-03-29T12:23:56;17.00;59.60
68719;DHT22;55696;52.138;5.444;2023-03-29T12:32:25;17.00;58.60
68719;DHT22;55696;52.138;5.444;2023-03-29T12:35:27;16.90;60.70
68719;DHT22;55696;52.138;5.444;2023-03-29T12:38:21;16.70;60.80
68719;DHT22;55696;52.138;5.444;2023-03-29T12:41:19;16.50;61.60
68719;DHT22;55696;52.138;5.444;2023-03-29T12:44:05;16.40;61.50
68719;DHT22;55696;52.138;5.444;2023-03-29T12:46:45;16.20;61.50
68719;DHT22;55696;52.138;5.444;2023-03-29T12:49:27;16.00;61.30
68719;DHT22;55696;52.138;5.444;2023-03-29T12:51:56;15.80;63.50
68719;DHT22;55696;52.138;5.444;2023-03-29T12:54:29;15.80;63.00
68719;DHT22;55696;52.138;5.444;2023-03-29T12:57:18;15.90;63.50
68719;DHT22;55696;52.138;5.444;2023-03-29T12:59:47;15.90;63.20
68719;DHT22;55696;52.138;5.444;2023-03-29T13:04:55;15.80;62.60
68719;DHT22;55696;52.138;5.444;2023-03-29T13:09:57;15.90;62.60
68719;DHT22;55696;52.138;5.444;2023-03-29T13:15:05;16.20;64.30
68719;DHT22;55696;52.138;5.444;2023-03-29T13:20:34;16.30;63.90
68719;DHT22;55696;52.138;5.444;2023-03-29T13:32:21;16.80;63.10
68719;DHT22;55696;52.138;5.444;2023-03-29T13:35:01;16.90;62.50
68719;DHT22;55696;52.138;5.444;2023-03-29T13:45:35;16.90;61.80
68719;DHT22;55696;52.138;5.444;2023-03-29T13:48:24;16.80;62.20
68719;DHT22;55696;52.138;5.444;2023-03-29T13:50:57;16.90;62.40
68719;DHT22;55696;52.138;5.444;2023-03-29T13:53:34;16.90;61.90
68719;DHT22;55696;52.138;5.444;2023-03-29T13:56:08;16.90;62.50
68719;DHT22;55696;52.138;5.444;2023-03-29T13:58:43;16.90;62.30
68719;DHT22;55696;52.138;5.444;2023-03-29T14:01:42;17.00;62.00
68719;DHT22;55696;52.138;5.444;2023-03-29T14:04:25;17.10;62.80
68719;DHT22;55696;52.138;5.444;2023-03-29T14:06:54;17.20;62.50
68719;DHT22;55696;52.138;5.444;2023-03-29T14:09:28;17.90;62.10
68719;DHT22;55696;52.138;5.444;2023-03-29T14:11:59;17.20;62.10
68719;DHT22;55696;52.138;5.444;2023-03-29T14:14:29;17.30;61.70
68719;DHT22;55696;52.138;5.444;2023-03-29T14:16:59;17.40;61.40
68719;DHT22;55696;52.138;5.444;2023-03-29T14:19:32;17.40;61.40
68719;DHT22;55696;52.138;5.444;2023-03-29T14:22:00;18.20;61.90
68719;DHT22;55696;52.138;5.444;2023-03-29T14:24:37;17.30;60.50
68719;DHT22;55696;52.138;5.444;2023-03-29T14:27:06;17.50;61.70
68719;DHT22;55696;52.138;5.444;2023-03-29T14:29:36;18.30;61.20
68719;DHT22;55696;52.138;5.444;2023-03-29T14:32:14;17.50;60.20
68719;DHT22;55696;52.138;5.444;2023-03-29T14:34:46;17.40;61.50
68719;DHT22;55696;52.138;5.444;2023-03-29T14:37:20;17.70;60.60
68719;DHT22;55696;52.138;5.444;2023-03-29T14:39:48;17.60;61.00
68719;DHT22;55696;52.138;5.444;2023-03-29T14:42:18;17.70;60.10
68719;DHT22;55696;52.138;5.444;2023-03-29T14:44:47;17.80;60.40
68719;DHT22;55696;52.138;5.444;2023-03-29T14:47:23;17.90;59.70
68719;DHT22;55696;52.138;5.444;2023-03-29T14:49:52;18.20;59.80
68719;DHT22;55696;52.138;5.444;2023-03-29T14:52:22;18.20;58.90
68719;DHT22;55696;52.138;5.444;2023-03-29T14:54:51;18.30;59.00
68719;DHT22;55696;52.138;5.444;2023-03-29T14:57:22;18.30;59.00
68719;DHT22;55696;52.138;5.444;2023-03-29T14:59:58;18.40;59.40
68719;DHT22;55696;52.138;5.444;2023-03-29T15:02:30;18.40;59.40
68719;DHT22;55696;52.138;5.444;2023-03-29T15:05:05;18.40;59.00
68719;DHT22;55696;52.138;5.444;2023-03-29T15:07:34;18.50;58.40
68719;DHT22;55696;52.138;5.444;2023-03-29T15:10:03;18.40;57.90
68719;DHT22;55696;52.138;5.444;2023-03-29T15:12:32;18.50;58.00
68719;DHT22;55696;52.138;5.444;2023-03-29T15:15:00;18.40;57.60
68719;DHT22;55696;52.138;5.444;2023-03-29T15:17:35;18.50;57.30
68719;DHT22;55696;52.138;5.444;2023-03-29T15:20:37;18.70;56.70
68719;DHT22;55696;52.138;5.444;2023-03-29T15:23:20;18.60;57.70
68719;DHT22;55696;52.138;5.444;2023-03-29T15:25:53;18.50;58.10
68719;DHT22;55696;52.138;5.444;2023-03-29T15:31:17;18.40;57.80
68719;DHT22;55696;52.138;5.444;2023-03-29T15:33:45;18.40;59.10
68719;DHT22;55696;52.138;5.444;2023-03-29T15:36:13;18.30;57.60
68719;DHT22;55696;52.138;5.444;2023-03-29T15:38:41;18.20;57.90
68719;DHT22;55696;52.138;5.444;2023-03-29T15:41:12;18.40;58.20
68719;DHT22;55696;52.138;5.444;2023-03-29T15:43:40;18.10;57.90
68719;DHT22;55696;52.138;5.444;2023-03-29T15:46:09;18.00;57.30
68719;DHT22;55696;52.138;5.444;2023-03-29T15:48:36;17.90;57.40
68719;DHT22;55696;52.138;5.444;2023-03-29T15:51:04;17.90;57.30
68719;DHT22;55696;52.138;5.444;2023-03-29T15:53:32;17.90;57.40
68719;DHT22;55696;52.138;5.444;2023-03-29T15:56:00;17.70;57.30
68719;DHT22;55696;52.138;5.444;2023-03-29T15:58:30;17.70;58.20
68719;DHT22;55696;52.138;5.444;2023-03-29T16:01:12;17.70;58.10
68719;DHT22;55696;52.138;5.444;2023-03-29T16:03:44;17.80;58.70
68719;DHT22;55696;52.138;5.444;2023-03-29T16:06:14;17.70;57.50
68719;DHT22;55696;52.138;5.444;2023-03-29T16:08:42;17.70;58.20
68719;DHT22;55696;52.138;5.444;2023-03-29T16:11:09;17.70;57.80
68719;DHT22;55696;52.138;5.444;2023-03-29T16:13:37;17.70;57.70
68719;DHT22;55696;52.138;5.444;2023-03-29T16:16:04;17.80;57.80
68719;DHT22;55696;52.138;5.444;2023-03-29T16:18:31;17.80;57.90
68719;DHT22;55696;52.138;5.444;2023-03-29T16:20:58;17.80;57.90
68719;DHT22;55696;52.138;5.444;2023-03-29T16:23:25;17.70;58.00
68719;DHT22;55696;52.138;5.444;2023-03-29T16:25:52;17.70;58.10
68719;DHT22;55696;52.138;5.444;2023-03-29T16:28:18;17.50;58.20
68719;DHT22;55696;52.138;5.444;2023-03-29T16:30:45;18.50;58.80
68719;DHT22;55696;52.138;5.444;2023-03-29T16:33:12;17.40;58.50
68719;DHT22;55696;52.138;5.444;2023-03-29T16:35:39;17.40;58.70
68719;DHT22;55696;52.138;5.444;2023-03-29T16:38:07;17.40;58.70
68719;DHT22;55696;52.138;5.444;2023-03-29T16:40:35;17.60;59.40
68719;DHT22;55696;52.138;5.444;2023-03-29T16:43:02;17.40;59.50
68719;DHT22;55696;52.138;5.444;2023-03-29T16:45:29;17.40;59.30
68719;DHT22;55696;52.138;5.444;2023-03-29T16:47:56;17.30;59.60
68719;DHT22;55696;52.138;5.444;2023-03-29T16:50:23;17.20;59.80
68719;DHT22;55696;52.138;5.444;2023-03-29T16:52:50;17.30;59.90
68719;DHT22;55696;52.138;5.444;2023-03-29T16:55:18;17.20;60.10
68719;DHT22;55696;52.138;5.444;2023-03-29T16:57:45;17.30;60.40
68719;DHT22;55696;52.138;5.444;2023-03-29T17:00:15;17.00;60.70
68719;DHT22;55696;52.138;5.444;2023-03-29T17:02:42;17.10;61.40
68719;DHT22;55696;52.138;5.444;2023-03-29T17:05:11;17.00;61.20
68719;DHT22;55696;52.138;5.444;2023-03-29T17:07:38;17.10;61.70
68719;DHT22;55696;52.138;5.444;2023-03-29T17:10:06;16.90;61.10
68719;DHT22;55696;52.138;5.444;2023-03-29T17:12:34;17.10;61.80
68719;DHT22;55696;52.138;5.444;2023-03-29T17:15:01;16.90;61.00
68719;DHT22;55696;52.138;5.444;2023-03-29T17:17:29;16.80;61.30
68719;DHT22;55696;52.138;5.444;2023-03-29T17:19:56;16.90;61.20
68719;DHT22;55696;52.138;5.444;2023-03-29T17:22:23;16.90;61.50
68719;DHT22;55696;52.138;5.444;2023-03-29T17:24:50;16.90;61.80
68719;DHT22;55696;52.138;5.444;2023-03-29T17:27:17;17.70;61.90
68719;DHT22;55696;52.138;5.444;2023-03-29T17:29:44;16.90;61.80
68719;DHT22;55696;52.138;5.444;2023-03-29T17:32:10;16.80;61.70
68719;DHT22;55696;52.138;5.444;2023-03-29T17:34:37;16.80;61.80
68719;DHT22;55696;52.138;5.444;2023-03-29T17:37:04;18.00;62.50
68719;DHT22;55696;52.138;5.444;2023-03-29T17:39:31;16.80;61.90
68719;DHT22;55696;52.138;5.444;2023-03-29T17:42:03;16.90;62.30
68719;DHT22;55696;52.138;5.444;2023-03-29T17:44:30;16.80;62.60
68719;DHT22;55696;52.138;5.444;2023-03-29T17:46:59;16.70;62.30